Disclaimer

Please do not use the information listed here in-flight or in-navigation, as they are not provided to us by the airports but are provided by volunteers, so they might be outdated.

Search


Regions


Airport information page

Radio informations:
TWR/APP - 120.1 MHz

Airport informations:
Latitude: 27° 23' 09.02" S
Longitude: 055° 58' 14.62" W
Elevation: 430 feet - 131 meters
Operating hours: Remarks
Operating agency: Civil government, landing fees and diplomatic clearance may be required
Timezone: UTC-3
Fuel: Jet A1, without icing nhibitor.

100/130 MIL Spec, low lead, aviation gasoline (BLUE)

Runway information:
01/19 - 7406 x 98 feet< - >2257 x 30 meters

Recent METARs:
SARP 202000Z 29004KT 9999 FEW035 31/20 Q1013
SARP 202000Z 29004KT 9999 FEW035 31/20 Q1013
SARP 202100Z 16003KT 9999 FEW035 30/20 Q1013

Airport on the map: